Time;durP1;ratioP1;P1;durP2;ratioP2;P2;SDS_P1;SDS_P2;PMS_P1;PMS_P2;Temp;Humidity;BMP_temperature;BMP_pressure;BME280_temperature;BME280_humidity;BME280_pressure;Samples;Min_cycle;Max_cycle;Signal;HPM_P1;HPM_P2
2022/01/05 00:00:24;;;;;;;2.70;2.38;;;;;;;;;;4937362;29;20052;-71
2022/01/05 00:02:50;;;;;;;2.97;2.13;;;;;;;;;;4954394;28;20047;-71
2022/01/05 00:05:18;;;;;;;2.65;2.13;;;;;;;;;;4954774;28;20051;-71
2022/01/05 00:07:44;;;;;;;2.78;2.13;;;;;;;;;;4954598;28;20110;-71
2022/01/05 00:10:11;;;;;;;2.70;1.90;;;;;;;;;;4954501;28;20102;-71
2022/01/05 00:12:37;;;;;;;2.05;1.85;;;;;;;;;;4951027;28;20448;-71
2022/01/05 00:15:05;;;;;;;2.72;1.52;;;;;;;;;;4935241;29;20582;-69
2022/01/05 00:17:31;;;;;;;1.50;1.40;;;;;;;;;;4935193;29;20051;-71
2022/01/05 00:19:58;;;;;;;1.85;1.40;;;;;;;;;;4935211;29;20110;-71
2022/01/05 00:22:24;;;;;;;1.77;1.58;;;;;;;;;;4935236;29;20480;-70
2022/01/05 00:24:51;;;;;;;1.65;1.50;;;;;;;;;;4940366;29;20105;-71
2022/01/05 00:27:18;;;;;;;1.27;1.17;;;;;;;;;;4945119;28;20107;-71
2022/01/05 00:29:44;;;;;;;1.42;1.20;;;;;;;;;;4935045;29;20103;-71
2022/01/05 00:32:11;;;;;;;1.20;0.90;;;;;;;;;;4934738;29;20499;-71
2022/01/05 00:34:38;;;;;;;1.30;1.20;;;;;;;;;;4934959;29;20134;-71
2022/01/05 00:37:04;;;;;;;1.58;1.10;;;;;;;;;;4940783;29;20051;-71
2022/01/05 00:39:31;;;;;;;2.67;1.00;;;;;;;;;;4954150;28;20470;-71
2022/01/05 00:41:59;;;;;;;0.70;0.70;;;;;;;;;;4953970;28;20051;-71
2022/01/05 00:44:25;;;;;;;0.85;0.82;;;;;;;;;;4953976;28;20466;-71
2022/01/05 00:46:52;;;;;;;0.50;0.50;;;;;;;;;;4953828;28;20052;-71
2022/01/05 00:49:19;;;;;;;0.90;0.90;;;;;;;;;;4948492;28;20414;-71
2022/01/05 00:51:45;;;;;;;0.65;0.60;;;;;;;;;;4934558;29;20072;-71
2022/01/05 00:54:12;;;;;;;1.30;0.80;;;;;;;;;;4934592;29;20122;-71
2022/01/05 00:56:38;;;;;;;0.60;0.60;;;;;;;;;;4934704;29;20107;-72
2022/01/05 00:59:05;;;;;;;1.25;0.68;;;;;;;;;;4934695;29;20111;-71
2022/01/05 01:01:32;;;;;;;1.17;0.57;;;;;;;;;;4934564;29;20090;-71
2022/01/05 01:03:58;;;;;;;0.55;0.40;;;;;;;;;;4934402;29;20176;-71
2022/01/05 01:06:25;;;;;;;0.30;0.30;;;;;;;;;;4934071;29;20056;-72
2022/01/05 01:08:52;;;;;;;1.00;0.40;;;;;;;;;;4934491;29;20056;-70
2022/01/05 01:11:18;;;;;;;1.52;0.65;;;;;;;;;;4934600;29;20051;-71
2022/01/05 01:13:45;;;;;;;0.30;0.30;;;;;;;;;;4945872;29;20094;-71
2022/01/05 01:16:11;;;;;;;0.82;0.50;;;;;;;;;;4953770;28;20051;-72
2022/01/05 01:18:38;;;;;;;0.50;0.50;;;;;;;;;;4953671;28;20097;-71
2022/01/05 01:21:05;;;;;;;0.93;0.43;;;;;;;;;;4953526;28;20122;-71
2022/01/05 01:23:31;;;;;;;0.30;0.30;;;;;;;;;;4953500;28;20499;-71
2022/01/05 01:25:58;;;;;;;0.40;0.30;;;;;;;;;;4938918;28;20106;-70
2022/01/05 01:28:25;;;;;;;0.50;0.47;;;;;;;;;;4934436;29;20048;-72
2022/01/05 01:30:52;;;;;;;0.20;0.20;;;;;;;;;;4934150;29;20051;-71
2022/01/05 01:33:19;;;;;;;0.40;0.35;;;;;;;;;;4934279;29;20084;-71
2022/01/05 01:35:45;;;;;;;0.68;0.50;;;;;;;;;;4934306;29;20570;-72
2022/01/05 01:38:12;;;;;;;1.55;0.35;;;;;;;;;;4937188;29;20052;-72
2022/01/05 01:40:39;;;;;;;0.20;0.20;;;;;;;;;;4934333;29;20055;-71
2022/01/05 01:43:06;;;;;;;0.20;0.20;;;;;;;;;;4934169;29;20118;-71
2022/01/05 01:45:34;;;;;;;0.57;0.20;;;;;;;;;;4934292;29;20106;-72
2022/01/05 01:48:00;;;;;;;0.28;0.20;;;;;;;;;;4934097;29;20070;-71
2022/01/05 01:50:27;;;;;;;0.20;0.20;;;;;;;;;;4934036;29;20056;-71
2022/01/05 01:52:54;;;;;;;0.30;0.20;;;;;;;;;;4934109;29;20091;-72
2022/01/05 01:55:21;;;;;;;0.10;0.10;;;;;;;;;;4934381;29;20130;-71
2022/01/05 01:57:47;;;;;;;0.65;0.28;;;;;;;;;;4934106;29;20048;-71
2022/01/05 02:00:14;;;;;;;1.50;0.17;;;;;;;;;;4935585;29;20052;-71
2022/01/05 02:02:41;;;;;;;0.40;0.30;;;;;;;;;;4953113;29;20055;-72
2022/01/05 02:05:08;;;;;;;1.05;0.20;;;;;;;;;;4936209;29;20055;-71
2022/01/05 02:07:34;;;;;;;0.43;0.30;;;;;;;;;;4952053;29;20051;-71
2022/01/05 02:10:06;;;;;;;0.32;0.20;;;;;;;;;;4953152;28;20102;-72
2022/01/05 02:12:33;;;;;;;0.22;0.22;;;;;;;;;;4951837;29;20106;-72
2022/01/05 02:15:00;;;;;;;0.20;0.20;;;;;;;;;;4952921;28;20055;-71
2022/01/05 02:17:43;;;;;;;0.30;0.20;;;;;;;;;;4955759;28;20102;-72
2022/01/05 02:20:16;;;;;;;0.43;0.20;;;;;;;;;;4956743;28;20470;-71
2022/01/05 02:22:44;;;;;;;0.20;0.20;;;;;;;;;;4958308;28;20094;-71
2022/01/05 02:25:10;;;;;;;0.50;0.20;;;;;;;;;;4970997;28;20075;-71
2022/01/05 02:27:41;;;;;;;0.20;0.20;;;;;;;;;;4974365;28;20066;-73
2022/01/05 02:30:12;;;;;;;0.65;0.17;;;;;;;;;;4974482;28;20577;-71
2022/01/05 02:32:39;;;;;;;0.20;0.20;;;;;;;;;;4976694;28;20063;-70
2022/01/05 02:35:06;;;;;;;1.55;0.30;;;;;;;;;;4979863;28;20164;-72
2022/01/05 02:37:42;;;;;;;0.50;0.25;;;;;;;;;;4979842;28;20170;-68
2022/01/05 02:40:10;;;;;;;0.38;0.38;;;;;;;;;;4978894;29;20043;-70
2022/01/05 02:42:37;;;;;;;0.28;0.20;;;;;;;;;;4975756;28;20051;-70
2022/01/05 02:45:04;;;;;;;0.20;0.20;;;;;;;;;;4979093;28;20051;-69
2022/01/05 02:47:31;;;;;;;0.32;0.20;;;;;;;;;;4980268;28;20051;-68
2022/01/05 02:49:58;;;;;;;0.30;0.28;;;;;;;;;;4965352;28;20055;-68
2022/01/05 02:52:25;;;;;;;0.20;0.20;;;;;;;;;;4977033;29;20074;-67
2022/01/05 02:54:51;;;;;;;0.47;0.30;;;;;;;;;;4978808;28;20051;-69
2022/01/05 02:57:18;;;;;;;0.13;0.13;;;;;;;;;;4979977;28;20044;-71
2022/01/05 02:59:44;;;;;;;0.57;0.45;;;;;;;;;;4979269;28;20051;-69
2022/01/05 03:02:11;;;;;;;0.47;0.30;;;;;;;;;;4979159;28;20055;-71
2022/01/05 03:04:38;;;;;;;0.73;0.40;;;;;;;;;;4978391;28;20051;-71
2022/01/05 03:07:05;;;;;;;0.70;0.35;;;;;;;;;;4959880;28;20066;-72
2022/01/05 03:09:31;;;;;;;0.30;0.30;;;;;;;;;;4956824;28;20110;-71
2022/01/05 03:11:59;;;;;;;0.38;0.28;;;;;;;;;;4956247;28;20134;-71
2022/01/05 03:14:25;;;;;;;0.20;0.20;;;;;;;;;;4956342;28;20098;-71
2022/01/05 03:16:52;;;;;;;0.22;0.22;;;;;;;;;;4956155;28;20495;-72
2022/01/05 03:19:19;;;;;;;0.15;0.15;;;;;;;;;;4956577;28;20055;-71
2022/01/05 03:21:46;;;;;;;0.32;0.32;;;;;;;;;;4955962;28;20051;-72
2022/01/05 03:24:13;;;;;;;1.05;0.30;;;;;;;;;;4955976;28;20075;-72
2022/01/05 03:26:39;;;;;;;0.55;0.30;;;;;;;;;;4956253;28;20056;-71
2022/01/05 03:29:06;;;;;;;0.20;0.20;;;;;;;;;;4952680;28;20055;-72
2022/01/05 03:31:32;;;;;;;0.20;0.20;;;;;;;;;;4936537;29;20118;-71
2022/01/05 03:33:59;;;;;;;0.20;0.20;;;;;;;;;;4936328;29;20079;-72
2022/01/05 03:36:26;;;;;;;0.40;0.30;;;;;;;;;;4936542;29;20079;-71
2022/01/05 03:38:52;;;;;;;0.20;0.20;;;;;;;;;;4936687;29;20051;-71
2022/01/05 03:41:19;;;;;;;0.30;0.30;;;;;;;;;;4936598;29;20051;-72
2022/01/05 03:43:45;;;;;;;0.20;0.20;;;;;;;;;;4935208;29;20052;-72
2022/01/05 03:46:12;;;;;;;0.10;0.10;;;;;;;;;;4936400;29;20114;-71
2022/01/05 03:48:38;;;;;;;0.30;0.20;;;;;;;;;;4936121;29;20055;-72
2022/01/05 03:51:05;;;;;;;0.10;0.10;;;;;;;;;;4935731;29;20055;-72
2022/01/05 03:53:32;;;;;;;0.22;0.20;;;;;;;;;;4935786;29;20094;-72
2022/01/05 03:55:58;;;;;;;0.30;0.30;;;;;;;;;;4935931;29;20060;-71
2022/01/05 03:58:25;;;;;;;0.20;0.20;;;;;;;;;;4935892;29;20051;-72
2022/01/05 04:00:52;;;;;;;0.10;0.10;;;;;;;;;;4954417;29;20071;-72
2022/01/05 04:03:19;;;;;;;0.55;0.15;;;;;;;;;;4955211;28;20056;-71
2022/01/05 04:05:45;;;;;;;1.13;0.30;;;;;;;;;;4954807;28;20051;-71
2022/01/05 04:08:12;;;;;;;0.40;0.22;;;;;;;;;;4954769;28;20055;-71
2022/01/05 04:10:39;;;;;;;0.22;0.17;;;;;;;;;;4936386;28;20102;-71
2022/01/05 04:13:06;;;;;;;0.10;0.10;;;;;;;;;;4935137;29;20051;-72
2022/01/05 04:15:32;;;;;;;0.63;0.10;;;;;;;;;;4935488;29;20056;-72
2022/01/05 04:17:59;;;;;;;0.60;0.20;;;;;;;;;;4935548;29;20099;-72
2022/01/05 04:20:26;;;;;;;0.13;0.10;;;;;;;;;;4949881;29;20055;-72
2022/01/05 04:22:52;;;;;;;0.45;0.10;;;;;;;;;;4954200;28;20114;-72
2022/01/05 04:25:19;;;;;;;0.20;0.20;;;;;;;;;;4954669;28;20109;-71
2022/01/05 04:27:45;;;;;;;0.30;0.10;;;;;;;;;;4954257;28;20106;-72
2022/01/05 04:30:12;;;;;;;1.70;0.40;;;;;;;;;;4954253;28;20047;-72
2022/01/05 04:32:39;;;;;;;0.08;0.08;;;;;;;;;;4953914;28;20055;-72
2022/01/05 04:35:25;;;;;;;0.55;0.20;;;;;;;;;;4954468;28;20090;-71
2022/01/05 04:37:53;;;;;;;0.08;0.08;;;;;;;;;;4952295;29;20082;-72
2022/01/05 04:40:19;;;;;;;0.47;0.32;;;;;;;;;;4953292;28;20109;-71
2022/01/05 04:42:46;;;;;;;1.08;0.20;;;;;;;;;;4954022;28;20047;-72
2022/01/05 04:45:13;;;;;;;0.35;0.22;;;;;;;;;;4954104;28;20105;-72
2022/01/05 04:47:40;;;;;;;0.20;0.10;;;;;;;;;;4948318;28;20507;-71
2022/01/05 04:50:07;;;;;;;0.88;0.60;;;;;;;;;;4934848;29;20172;-72
2022/01/05 04:52:33;;;;;;;0.98;0.40;;;;;;;;;;4934637;29;20048;-71
2022/01/05 04:55:00;;;;;;;0.22;0.22;;;;;;;;;;4934762;29;20052;-71
2022/01/05 04:57:27;;;;;;;0.35;0.30;;;;;;;;;;4934810;29;20047;-72
2022/01/05 04:59:53;;;;;;;1.33;0.30;;;;;;;;;;4934947;29;20111;-70
2022/01/05 05:02:20;;;;;;;0.30;0.30;;;;;;;;;;4934694;29;20047;-69
2022/01/05 05:04:50;;;;;;;1.73;0.20;;;;;;;;;;4934596;29;20048;-70
2022/01/05 05:07:17;;;;;;;0.40;0.28;;;;;;;;;;4934588;29;20059;-71
2022/01/05 05:09:43;;;;;;;0.40;0.30;;;;;;;;;;4950717;29;20098;-71
2022/01/05 05:12:10;;;;;;;0.17;0.15;;;;;;;;;;4953530;28;20102;-70
2022/01/05 05:14:37;;;;;;;0.50;0.50;;;;;;;;;;4954226;28;20047;-70
2022/01/05 05:17:04;;;;;;;0.30;0.30;;;;;;;;;;4953594;28;20055;-70
2022/01/05 05:19:31;;;;;;;0.65;0.30;;;;;;;;;;4951710;28;20521;-70
2022/01/05 05:21:58;;;;;;;0.77;0.40;;;;;;;;;;4934406;29;20051;-70
2022/01/05 05:24:24;;;;;;;0.50;0.50;;;;;;;;;;4934264;29;20051;-68
2022/01/05 05:26:51;;;;;;;0.70;0.70;;;;;;;;;;4936311;29;20072;-71
2022/01/05 05:29:18;;;;;;;1.27;0.70;;;;;;;;;;4953585;28;20051;-70
2022/01/05 05:31:44;;;;;;;1.13;0.70;;;;;;;;;;4953260;28;20565;-71
2022/01/05 05:34:11;;;;;;;0.80;0.80;;;;;;;;;;4953272;28;20051;-70
2022/01/05 05:36:37;;;;;;;1.35;1.20;;;;;;;;;;4953582;28;20047;-70
2022/01/05 05:39:04;;;;;;;1.30;1.20;;;;;;;;;;4953544;28;20055;-71
2022/01/05 05:41:31;;;;;;;2.03;1.40;;;;;;;;;;4953578;28;20051;-71
2022/01/05 05:43:57;;;;;;;1.73;1.35;;;;;;;;;;4953237;28;20486;-71
2022/01/05 05:46:24;;;;;;;2.72;1.60;;;;;;;;;;4953371;28;20503;-70
2022/01/05 05:48:51;;;;;;;3.80;2.15;;;;;;;;;;4935453;28;20058;-71
2022/01/05 05:51:17;;;;;;;2.38;2.17;;;;;;;;;;4934855;29;20052;-70
2022/01/05 05:53:44;;;;;;;2.55;1.90;;;;;;;;;;4937753;29;20123;-71
2022/01/05 05:56:11;;;;;;;2.95;2.65;;;;;;;;;;4937765;29;20122;-71
2022/01/05 05:58:37;;;;;;;3.85;2.78;;;;;;;;;;4953418;29;20055;-69
2022/01/05 06:01:04;;;;;;;7.15;4.20;;;;;;;;;;4952968;28;20494;-71
2022/01/05 06:03:31;;;;;;;6.65;3.97;;;;;;;;;;4953990;28;20051;-71
2022/01/05 06:05:57;;;;;;;5.05;3.58;;;;;;;;;;4937643;29;20111;-71
2022/01/05 06:08:24;;;;;;;3.95;3.15;;;;;;;;;;4937664;29;20107;-70
2022/01/05 06:10:50;;;;;;;4.80;2.97;;;;;;;;;;4937382;29;20051;-70
2022/01/05 06:13:17;;;;;;;5.63;2.75;;;;;;;;;;4937568;29;20102;-71
2022/01/05 06:15:44;;;;;;;3.85;3.35;;;;;;;;;;4918779;29;20056;-71
2022/01/05 06:18:10;;;;;;;4.90;3.35;;;;;;;;;;4918508;29;20052;-70
2022/01/05 06:20:37;;;;;;;4.82;3.88;;;;;;;;;;4918452;29;20559;-71
2022/01/05 06:23:03;;;;;;;6.88;3.42;;;;;;;;;;4918294;29;20052;-71
2022/01/05 06:25:30;;;;;;;4.53;3.67;;;;;;;;;;4952321;29;20115;-71
2022/01/05 06:27:56;;;;;;;8.27;4.50;;;;;;;;;;4956373;28;20047;-71
2022/01/05 06:30:23;;;;;;;6.07;3.80;;;;;;;;;;4956449;28;20055;-70
2022/01/05 06:32:50;;;;;;;5.10;3.78;;;;;;;;;;4956106;28;20107;-70
2022/01/05 06:35:19;;;;;;;4.65;3.95;;;;;;;;;;4940686;28;20048;-70
2022/01/05 06:37:46;;;;;;;4.45;3.72;;;;;;;;;;4937162;29;20048;-71
2022/01/05 06:40:13;;;;;;;5.22;3.58;;;;;;;;;;4937031;29;20400;-70
2022/01/05 06:42:39;;;;;;;5.75;4.18;;;;;;;;;;4936937;29;20217;-70
2022/01/05 06:45:06;;;;;;;5.78;3.60;;;;;;;;;;4936835;29;20048;-71
2022/01/05 06:47:33;;;;;;;7.95;4.40;;;;;;;;;;4936974;29;20055;-70
2022/01/05 06:49:59;;;;;;;6.15;3.63;;;;;;;;;;4936763;29;20499;-70
2022/01/05 06:52:26;;;;;;;5.18;3.70;;;;;;;;;;4936978;29;20055;-70
2022/01/05 06:54:53;;;;;;;5.20;3.30;;;;;;;;;;4948644;29;20051;-70
2022/01/05 06:57:19;;;;;;;5.53;3.13;;;;;;;;;;4955836;28;20055;-70
2022/01/05 06:59:46;;;;;;;2.63;2.20;;;;;;;;;;4956030;28;20430;-71
2022/01/05 07:02:13;;;;;;;4.35;2.72;;;;;;;;;;4955279;28;20562;-71
2022/01/05 07:04:39;;;;;;;4.97;2.83;;;;;;;;;;4955227;28;20047;-71
2022/01/05 07:07:06;;;;;;;4.55;3.28;;;;;;;;;;4944505;28;20059;-71
2022/01/05 07:09:33;;;;;;;4.63;2.00;;;;;;;;;;4936548;29;20119;-71
2022/01/05 07:11:59;;;;;;;4.38;2.17;;;;;;;;;;4936500;29;20052;-69
2022/01/05 07:14:26;;;;;;;3.25;2.08;;;;;;;;;;4936304;29;20080;-71
2022/01/05 07:16:53;;;;;;;7.15;2.00;;;;;;;;;;4936412;29;20130;-70
2022/01/05 07:19:20;;;;;;;2.50;1.95;;;;;;;;;;4945687;29;20106;-70
2022/01/05 07:21:47;;;;;;;2.85;2.17;;;;;;;;;;4946095;28;20702;-71
2022/01/05 07:24:17;;;;;;;4.50;2.63;;;;;;;;;;4927415;29;20633;-69
2022/01/05 07:26:44;;;;;;;3.10;1.95;;;;;;;;;;4922594;29;20606;-70
2022/01/05 07:29:15;;;;;;;13.82;8.07;;;;;;;;;;4921334;29;20066;-70
2022/01/05 07:31:42;;;;;;;14.23;7.20;;;;;;;;;;4929865;29;20048;-70
2022/01/05 07:34:09;;;;;;;13.80;7.05;;;;;;;;;;4921684;28;20091;-70
2022/01/05 07:36:36;;;;;;;3.65;2.15;;;;;;;;;;4920308;29;20059;-71
2022/01/05 07:39:04;;;;;;;4.57;2.40;;;;;;;;;;4924221;29;20067;-70
2022/01/05 07:41:32;;;;;;;5.57;3.10;;;;;;;;;;4920711;29;20056;-70
2022/01/05 07:43:59;;;;;;;6.22;2.75;;;;;;;;;;4924629;29;20103;-71
2022/01/05 07:46:26;;;;;;;4.55;2.92;;;;;;;;;;4921260;29;20130;-71
2022/01/05 07:48:52;;;;;;;3.83;3.28;;;;;;;;;;4921445;29;20100;-69
2022/01/05 07:51:19;;;;;;;6.45;3.70;;;;;;;;;;4919890;29;20472;-71
2022/01/05 07:53:45;;;;;;;3.67;2.92;;;;;;;;;;4918367;29;20047;-70
2022/01/05 07:56:12;;;;;;;6.75;3.05;;;;;;;;;;4923343;29;20059;-70
2022/01/05 07:58:39;;;;;;;9.43;3.80;;;;;;;;;;4922084;29;20111;-69
2022/01/05 08:01:05;;;;;;;8.52;3.75;;;;;;;;;;4920132;29;20762;-71
2022/01/05 08:03:33;;;;;;;3.97;2.75;;;;;;;;;;4920473;29;20060;-70
2022/01/05 08:06:18;;;;;;;3.85;3.45;;;;;;;;;;4923953;29;20077;-70
2022/01/05 08:08:45;;;;;;;8.73;5.13;;;;;;;;;;4920294;29;20123;-68
2022/01/05 08:11:11;;;;;;;9.90;3.65;;;;;;;;;;4922697;29;20051;-68
2022/01/05 08:13:38;;;;;;;4.53;3.38;;;;;;;;;;4921520;29;20467;-69
2022/01/05 08:16:05;;;;;;;6.90;2.20;;;;;;;;;;4922308;29;20059;-72
2022/01/05 08:18:32;;;;;;;7.53;2.88;;;;;;;;;;4927234;29;20052;-70
2022/01/05 08:20:58;;;;;;;6.85;2.63;;;;;;;;;;4927048;29;20055;-71
2022/01/05 08:23:25;;;;;;;6.80;2.45;;;;;;;;;;4922161;29;20075;-71
2022/01/05 08:25:52;;;;;;;4.20;2.63;;;;;;;;;;4921506;29;20052;-70
2022/01/05 08:28:19;;;;;;;5.13;2.70;;;;;;;;;;4930810;29;20500;-70
2022/01/05 08:30:46;;;;;;;7.22;3.47;;;;;;;;;;4920285;29;20108;-71
2022/01/05 08:33:15;;;;;;;5.88;3.25;;;;;;;;;;4925726;29;20104;-68
2022/01/05 08:35:42;;;;;;;5.85;2.90;;;;;;;;;;4921074;29;20048;-67
2022/01/05 08:38:09;;;;;;;5.38;2.50;;;;;;;;;;4921716;29;20467;-67
2022/01/05 08:40:36;;;;;;;6.72;2.80;;;;;;;;;;4925116;29;20469;-68
2022/01/05 08:43:05;;;;;;;9.23;3.40;;;;;;;;;;4922175;29;20103;-67
2022/01/05 08:45:31;;;;;;;4.88;2.75;;;;;;;;;;4921047;29;20052;-66
2022/01/05 08:47:59;;;;;;;4.20;3.10;;;;;;;;;;4921896;29;20103;-67
2022/01/05 08:50:28;;;;;;;7.28;3.35;;;;;;;;;;4921750;29;20052;-67
2022/01/05 08:52:56;;;;;;;6.88;3.58;;;;;;;;;;4925100;29;20166;-68
2022/01/05 08:55:27;;;;;;;5.47;2.85;;;;;;;;;;4922523;29;20111;-72
2022/01/05 08:57:54;;;;;;;9.55;4.10;;;;;;;;;;4920743;29;20055;-71
2022/01/05 09:00:20;;;;;;;7.70;3.45;;;;;;;;;;4922385;29;20106;-70
2022/01/05 09:02:47;;;;;;;9.35;4.00;;;;;;;;;;4920605;29;20048;-73
2022/01/05 09:05:15;;;;;;;5.30;2.75;;;;;;;;;;4923297;29;20517;-72
2022/01/05 09:07:42;;;;;;;5.28;2.22;;;;;;;;;;4920528;29;20048;-73
2022/01/05 09:10:10;;;;;;;7.55;3.15;;;;;;;;;;4922320;29;20102;-69
2022/01/05 09:12:36;;;;;;;5.43;2.60;;;;;;;;;;4919473;29;20060;-68
2022/01/05 09:15:04;;;;;;;4.82;2.42;;;;;;;;;;4921274;29;20047;-70
2022/01/05 09:17:30;;;;;;;3.30;2.65;;;;;;;;;;4925332;29;20586;-67
2022/01/05 09:19:57;;;;;;;10.88;2.22;;;;;;;;;;4931530;29;20515;-73
2022/01/05 09:22:24;;;;;;;6.40;2.10;;;;;;;;;;4925189;28;20043;-71
2022/01/05 09:24:51;;;;;;;6.25;1.83;;;;;;;;;;4922127;29;20040;-74
2022/01/05 09:27:18;;;;;;;4.38;1.98;;;;;;;;;;4925011;29;20115;-71
2022/01/05 09:29:44;;;;;;;5.82;1.77;;;;;;;;;;4928366;29;20060;-71
2022/01/05 09:32:11;;;;;;;4.70;1.83;;;;;;;;;;4929059;29;20052;-70
2022/01/05 09:34:39;;;;;;;3.53;2.10;;;;;;;;;;4923068;29;20096;-72
2022/01/05 09:37:22;;;;;;;4.45;1.42;;;;;;;;;;4928851;29;20064;-70
2022/01/05 09:42:34;;;;;;;6.68;2.22;;;;;;;;;;4923752;29;20135;-68
2022/01/05 09:45:00;;;;;;;8.60;2.67;;;;;;;;;;4924842;29;20051;-68
2022/01/05 09:48:00;;;;;;;3.65;1.60;;;;;;;;;;4916192;29;20048;-69
2022/01/05 09:50:27;;;;;;;6.45;1.65;;;;;;;;;;4922800;29;20463;-67
2022/01/05 09:52:54;;;;;;;10.35;2.20;;;;;;;;;;4932169;29;20369;-69
2022/01/05 09:55:21;;;;;;;10.27;2.50;;;;;;;;;;4924786;29;20048;-71
2022/01/05 09:57:48;;;;;;;5.60;2.15;;;;;;;;;;4920738;29;20324;-70
2022/01/05 10:00:17;;;;;;;3.85;2.00;;;;;;;;;;4925816;29;20563;-68
2022/01/05 10:02:46;;;;;;;5.00;1.80;;;;;;;;;;4925800;29;20055;-71
2022/01/05 10:05:15;;;;;;;7.13;1.80;;;;;;;;;;4932334;29;20052;-70
2022/01/05 10:07:42;;;;;;;6.72;1.80;;;;;;;;;;4933665;29;20360;-68
2022/01/05 10:10:09;;;;;;;3.22;1.90;;;;;;;;;;4926870;29;20059;-70
2022/01/05 10:12:36;;;;;;;7.85;2.40;;;;;;;;;;4922805;29;20103;-69
2022/01/05 10:15:07;;;;;;;9.68;1.98;;;;;;;;;;4924701;29;20056;-73
2022/01/05 10:17:36;;;;;;;9.43;2.55;;;;;;;;;;4923334;29;20096;-70
2022/01/05 10:20:10;;;;;;;6.45;1.67;;;;;;;;;;4930044;29;20056;-71
2022/01/05 10:22:43;;;;;;;7.22;1.98;;;;;;;;;;4923695;29;20129;-71
2022/01/05 10:25:20;;;;;;;9.32;2.40;;;;;;;;;;4932096;29;20111;-74
2022/01/05 10:28:00;;;;;;;7.90;1.50;;;;;;;;;;4916759;29;20048;-75
2022/01/05 10:30:39;;;;;;;5.90;1.85;;;;;;;;;;4926842;29;20135;-70
2022/01/05 10:33:07;;;;;;;6.45;1.45;;;;;;;;;;4922349;29;20059;-67
2022/01/05 10:35:33;;;;;;;5.97;2.13;;;;;;;;;;4922678;29;20048;-68
2022/01/05 10:38:07;;;;;;;6.63;1.63;;;;;;;;;;4926704;29;20048;-68
2022/01/05 10:40:35;;;;;;;8.20;1.45;;;;;;;;;;4926281;29;20056;-67
2022/01/05 10:43:08;;;;;;;5.43;1.70;;;;;;;;;;4929976;29;20056;-74
2022/01/05 10:45:44;;;;;;;5.93;1.45;;;;;;;;;;4925315;29;20112;-74
2022/01/05 10:48:15;;;;;;;10.50;1.60;;;;;;;;;;4923101;29;20130;-76
2022/01/05 10:50:47;;;;;;;4.70;1.25;;;;;;;;;;4926253;29;20047;-74
2022/01/05 10:53:16;;;;;;;5.05;1.58;;;;;;;;;;4908354;29;20507;-72
2022/01/05 10:55:45;;;;;;;6.75;1.58;;;;;;;;;;4924053;29;20108;-72
2022/01/05 10:58:16;;;;;;;5.15;1.35;;;;;;;;;;4924087;29;20051;-71
2022/01/05 11:00:44;;;;;;;4.32;1.70;;;;;;;;;;4931163;29;20056;-72
2022/01/05 11:03:23;;;;;;;9.95;1.98;;;;;;;;;;4925736;29;20055;-74
2022/01/05 11:06:15;;;;;;;9.45;1.45;;;;;;;;;;4924326;29;20070;-73
2022/01/05 11:09:03;;;;;;;7.30;1.90;;;;;;;;;;4922928;29;20472;-72
2022/01/05 11:11:40;;;;;;;7.57;1.52;;;;;;;;;;4918576;29;20110;-75
2022/01/05 11:14:11;;;;;;;5.43;2.28;;;;;;;;;;4923140;29;20054;-70
2022/01/05 11:16:40;;;;;;;6.07;1.50;;;;;;;;;;4931578;29;20503;-73
2022/01/05 11:19:33;;;;;;;9.13;1.88;;;;;;;;;;4928945;28;20059;-72
2022/01/05 11:22:02;;;;;;;;;;;;;;;;;;4922321;29;20105;-72
2022/01/05 11:24:40;;;;;;;13.40;3.05;;;;;;;;;;4926382;29;19922;-75
2022/01/05 11:27:10;;;;;;;9.23;2.10;;;;;;;;;;4923056;29;20499;-67
2022/01/05 11:29:36;;;;;;;5.93;1.40;;;;;;;;;;4925695;29;20499;-68
2022/01/05 11:32:06;;;;;;;6.35;2.00;;;;;;;;;;4925634;29;20601;-68
2022/01/05 11:34:33;;;;;;;8.82;1.98;;;;;;;;;;4921474;29;20056;-68
2022/01/05 11:37:04;;;;;;;9.48;1.83;;;;;;;;;;4925949;29;20142;-65
2022/01/05 11:39:31;;;;;;;8.05;1.85;;;;;;;;;;4921446;29;20056;-68
2022/01/05 11:42:01;;;;;;;6.82;2.70;;;;;;;;;;4927312;29;20138;-70
2022/01/05 11:44:29;;;;;;;10.50;2.50;;;;;;;;;;4920693;29;20052;-70
2022/01/05 11:46:56;;;;;;;12.27;1.90;;;;;;;;;;4922682;29;20094;-66
2022/01/05 11:49:28;;;;;;;7.05;2.60;;;;;;;;;;4922061;29;20469;-66
2022/01/05 11:51:58;;;;;;;33.10;11.02;;;;;;;;;;4921169;29;20048;-67
2022/01/05 11:54:32;;;;;;;16.88;3.97;;;;;;;;;;4925644;29;20048;-66
2022/01/05 11:57:07;;;;;;;5.88;3.03;;;;;;;;;;4919043;29;20052;-66
2022/01/05 11:59:36;;;;;;;7.13;2.03;;;;;;;;;;4922237;29;20499;-67
2022/01/05 12:02:06;;;;;;;8.73;2.35;;;;;;;;;;4921150;29;20110;-67
2022/01/05 12:04:56;;;;;;;8.40;2.58;;;;;;;;;;4919102;29;20060;-66
2022/01/05 12:07:46;;;;;;;8.05;1.85;;;;;;;;;;4927289;29;20098;-66
2022/01/05 12:10:21;;;;;;;7.40;2.38;;;;;;;;;;4918266;29;20055;-67
2022/01/05 12:13:04;;;;;;;4.75;2.03;;;;;;;;;;4920981;29;20051;-67
2022/01/05 12:15:53;;;;;;;12.05;3.40;;;;;;;;;;4922987;29;20562;-67
2022/01/05 12:18:29;;;;;;;7.68;1.77;;;;;;;;;;4922474;28;20384;-67
2022/01/05 12:20:58;;;;;;;13.57;2.70;;;;;;;;;;4922378;29;20059;-66
2022/01/05 12:23:26;;;;;;;10.73;2.60;;;;;;;;;;4923379;29;20044;-66
2022/01/05 12:26:05;;;;;;;9.63;2.47;;;;;;;;;;4925207;29;20735;-67
2022/01/05 12:28:35;;;;;;;15.30;2.95;;;;;;;;;;4920534;29;20048;-66
2022/01/05 12:31:02;;;;;;;9.23;2.20;;;;;;;;;;4922326;29;20051;-66
2022/01/05 12:33:49;;;;;;;9.90;1.98;;;;;;;;;;4921076;29;20047;-67
2022/01/05 12:36:31;;;;;;;9.82;3.30;;;;;;;;;;4927181;29;20047;-66
2022/01/05 12:38:58;;;;;;;7.78;3.03;;;;;;;;;;4922593;29;20102;-68
2022/01/05 12:41:37;;;;;;;4.32;2.20;;;;;;;;;;4920979;29;20052;-66
2022/01/05 12:44:18;;;;;;;11.07;2.72;;;;;;;;;;4925965;29;20052;-68
2022/01/05 12:46:46;;;;;;;8.02;2.50;;;;;;;;;;4923864;29;20095;-68
2022/01/05 12:49:33;;;;;;;9.05;2.00;;;;;;;;;;4920632;29;20055;-65
2022/01/05 12:52:14;;;;;;;10.93;2.53;;;;;;;;;;4920724;29;20056;-67
2022/01/05 12:54:43;;;;;;;8.55;2.00;;;;;;;;;;4923555;29;20043;-70
2022/01/05 12:57:15;;;;;;;8.02;2.53;;;;;;;;;;4922181;29;20127;-67
2022/01/05 12:59:46;;;;;;;9.27;2.63;;;;;;;;;;4920411;29;20052;-67
2022/01/05 13:02:23;;;;;;;9.05;2.70;;;;;;;;;;4921501;29;20115;-67
2022/01/05 13:04:50;;;;;;;7.28;2.78;;;;;;;;;;4921448;29;20052;-66
2022/01/05 13:07:17;;;;;;;7.07;1.77;;;;;;;;;;4921139;29;20056;-66
2022/01/05 13:10:02;;;;;;;9.20;3.13;;;;;;;;;;4921996;29;20055;-68
2022/01/05 13:12:30;;;;;;;13.20;2.70;;;;;;;;;;4920420;29;20062;-68
2022/01/05 13:15:03;;;;;;;6.15;1.75;;;;;;;;;;4921655;29;20051;-68
2022/01/05 13:17:35;;;;;;;14.63;2.47;;;;;;;;;;4922315;29;20099;-66
2022/01/05 13:20:13;;;;;;;10.73;2.83;;;;;;;;;;4923609;29;20071;-66
2022/01/05 13:22:44;;;;;;;6.45;1.60;;;;;;;;;;4923294;29;20083;-67
2022/01/05 13:25:22;;;;;;;10.35;1.77;;;;;;;;;;4921725;29;20075;-69
2022/01/05 13:27:52;;;;;;;8.95;1.80;;;;;;;;;;4920401;29;20052;-66
2022/01/05 13:30:20;;;;;;;5.25;1.50;;;;;;;;;;4922062;29;20052;-67
2022/01/05 13:32:52;;;;;;;7.97;1.42;;;;;;;;;;4922387;29;20571;-67
2022/01/05 13:35:23;;;;;;;6.85;1.90;;;;;;;;;;4928954;29;20048;-65
2022/01/05 13:37:51;;;;;;;10.45;2.45;;;;;;;;;;4923700;29;20044;-66
2022/01/05 13:40:21;;;;;;;5.85;1.70;;;;;;;;;;4927915;29;20085;-65
2022/01/05 13:42:56;;;;;;;8.25;1.38;;;;;;;;;;4928762;29;20103;-65
2022/01/05 13:45:25;;;;;;;6.70;2.00;;;;;;;;;;4929347;29;20056;-68
2022/01/05 13:48:00;;;;;;;6.88;1.83;;;;;;;;;;4928206;29;20043;-68
2022/01/05 13:50:42;;;;;;;8.77;2.38;;;;;;;;;;4930421;29;20044;-67
2022/01/05 13:53:19;;;;;;;4.37;1.13;;;;;;;;;;4924856;29;20142;-70
2022/01/05 13:55:51;;;;;;;7.32;1.35;;;;;;;;;;4925678;29;20484;-70
2022/01/05 13:58:22;;;;;;;6.00;1.80;;;;;;;;;;4927359;29;20056;-71
2022/01/05 14:01:05;;;;;;;6.78;1.60;;;;;;;;;;4924819;29;20064;-70
2022/01/05 14:03:41;;;;;;;10.15;2.55;;;;;;;;;;4926968;29;20468;-72
2022/01/05 14:06:16;;;;;;;8.20;2.08;;;;;;;;;;4924850;29;20118;-69
2022/01/05 14:08:43;;;;;;;9.98;2.10;;;;;;;;;;4929818;29;20052;-68
2022/01/05 14:11:15;;;;;;;5.20;1.42;;;;;;;;;;4919996;29;20115;-68
2022/01/05 14:13:49;;;;;;;4.80;1.60;;;;;;;;;;4929231;29;20052;-68
2022/01/05 14:16:44;;;;;;;4.90;1.33;;;;;;;;;;4923701;29;20044;-68
2022/01/05 14:19:24;;;;;;;10.10;2.50;;;;;;;;;;4927723;29;20123;-68
2022/01/05 14:21:51;;;;;;;4.72;1.98;;;;;;;;;;4926575;29;20051;-71
2022/01/05 14:24:28;;;;;;;8.35;1.83;;;;;;;;;;4924853;29;20075;-71
2022/01/05 14:26:55;;;;;;;5.75;1.40;;;;;;;;;;4923143;29;20120;-69
2022/01/05 14:29:25;;;;;;;7.07;2.13;;;;;;;;;;4922827;29;20059;-69
2022/01/05 14:31:52;;;;;;;7.40;1.58;;;;;;;;;;4923874;29;20056;-68
2022/01/05 14:34:22;;;;;;;4.22;1.63;;;;;;;;;;4924359;29;20131;-69
2022/01/05 14:37:05;;;;;;;7.55;1.92;;;;;;;;;;4924736;29;20134;-69
2022/01/05 14:39:39;;;;;;;5.03;2.17;;;;;;;;;;4921819;29;20107;-72
2022/01/05 14:42:11;;;;;;;3.17;0.82;;;;;;;;;;4921345;29;20107;-69
2022/01/05 14:44:39;;;;;;;8.07;1.40;;;;;;;;;;4922604;29;20051;-71
2022/01/05 14:47:28;;;;;;;7.03;1.50;;;;;;;;;;4922308;29;20518;-70
2022/01/05 14:49:56;;;;;;;7.03;0.95;;;;;;;;;;4920581;29;20056;-70
2022/01/05 14:52:23;;;;;;;5.53;1.50;;;;;;;;;;4924585;29;20448;-72
2022/01/05 14:54:50;;;;;;;4.05;1.40;;;;;;;;;;4926335;28;20480;-71
2022/01/05 14:57:17;;;;;;;3.88;1.30;;;;;;;;;;4919804;29;20472;-71